Auburn, Washington
Current Conditions -  °F | °C
As of 3:53 PM on Sunday 25 Jan 2015 (Local Time) from KSEA Reporting Station
Broken Clouds Broken Clouds  
Wind Chill: 63°   Ceiling: 22000
Heat Index: 63°   Visibility: 10mi
Dew Point: 50°   Wind: 5mph
Humidity: 63%   Direction: 30°NNE
Pressure: 30.08"   Gusts: NA
Location:  47.31°N, 122.23°W
Report Text: KSEA 252353Z 03004KT 10SM BKN220 17/10 A3008 RMK AO2 SLP192 T01720100 10172 20122 56013
Loading
Personal Weather Stations






























Interactive Weather Map New forecast layout! Learn more

10-Day Weather Forecast

Advertisements
Track Severe Weather on mobile